• Join FlightAware (Why Join?)
  • Login
  • US Flag 
Trick or treat! (Boo!!) 
05:40PM EDT


 

Airport Tracker/Info


-or-


 

Live Flight TrackerFlight Track Log ✈ GJS3618 ✈ 10-Apr-2013 ✈ KORD - KALB

Flight Track Log - Related Links

Times and Time Zones

All times are in EDT time to prevent confusion due to time zone crossing. See the GJS3618 flight status page for this flight to view local times or setup timezone preferences in your user account.

Time Position Orientation Groundspeed Altitude Reporting Facility
EDT Latitude Longitude Course Direction KTS MPH feet Rate Location/Type
03:10PM 42.0333 -87.8833 20° North 177 204 3,000  Level Chicago TRACON
03:11PM 42.0833 -87.8667 14° North 260 299 4,300 1,140 Climbing Chicago TRACON
03:12PM 42.1492 -87.8306 22° Northeast 280 322 5,100 1,020 Climbing Chicago Center
03:13PM 42.2281 -87.8192 North 286 329 6,300 1,920 Climbing Chicago Center
03:14PM 42.3092 -87.8108 North 292 336 9,100 2,760 Climbing Chicago Center
03:15PM 42.3961 -87.8019 North 300 345 12,000 2,340 Climbing Chicago Center
03:16PM 42.6590 -87.6788 20° North  Level FlightAware Approximate
03:16PM 42.4819 -87.7861 North 310 357 14,000  Level Chicago Center
03:17PM 42.5953 -87.7333 19° North 373 429 15,200 1,380 Climbing Chicago Center
03:18PM 42.7044 -87.6858 18° North 401 461 16,900 1,560 Climbing Chicago Center
03:19PM 42.8083 -87.6167 26° Northeast 422 486 18,500 1,560 Climbing Chicago Center
03:20PM 42.8450 -87.4603 72° East 441 507 20,100 1,380 Climbing Chicago Center
03:21PM 42.8614 -87.3083 82° East 447 514 21,400 1,320 Climbing Chicago Center
03:22PM 42.8800 -87.1372 82° East 456 525 22,800 1,440 Climbing Chicago Center
03:23PM 42.9014 -86.9275 82° East 465 535 24,400 1,140 Climbing Chicago Center
03:24PM 42.9206 -86.7478 82° East 474 545 25,200 720 Climbing Chicago Center
03:25PM 42.9394 -86.5622 82° East 491 565 25,900 600 Climbing Chicago Center
03:26PM 42.9578 -86.3708 82° East 507 583 26,500 480 Climbing Chicago Center
03:27PM 42.9764 -86.1783 82° East 515 593 27,000 240 Climbing Chicago Center
03:28PM 42.9919 -85.9928 83° East 513 590 27,000 660 Level Chicago Center
03:29PM 43.0144 -85.7711 82° East 510 587 28,400 1,140 Climbing Chicago Center
03:30PM 43.0325 -85.5858 82° East 499 574 29,400 960 Climbing Chicago Center
03:31PM 43.0489 -85.3969 83° East 501 577 30,400 1,020 Climbing Chicago Center
03:33PM 43.0661 -85.2075 83° East 504 580 31,500 1,020 Climbing Chicago Center
03:34PM 43.0831 -85.0178 83° East 503 579 32,500 960 Climbing Chicago Center
03:35PM 43.0989 -84.8294 83° East 501 577 33,500 960 Climbing Chicago Center
03:36PM 43.1150 -84.6408 83° East 500 575 34,500 720 Climbing Chicago Center
03:37PM 43.1325 -84.4161 84° East 498 573 35,000 300 Climbing Chicago Center
03:37PM 43.1317 -84.3672 91° East 495 570 34,900 -180 Descending Cleveland Center
03:38PM 43.1478 -84.1972 83° East 495 570 34,800 -600 Descending Cleveland Center
03:39PM 43.1639 -84.0103 83° East 495 570 33,800 -900 Descending Cleveland Center
03:40PM 43.1775 -83.8231 84° East 495 570 33,000 -420 Descending Cleveland Center
03:41PM 43.1908 -83.6358 84° East 495 570 33,000  Level Cleveland Center
03:42PM 43.2064 -83.4428 84° East 500 575 33,000  Level Cleveland Center
03:43PM 43.2192 -83.2497 85° East 505 581 33,000  Level Cleveland Center
03:44PM 43.2319 -83.0564 85° East 505 581 33,000  Level Cleveland Center
03:45PM 43.2464 -82.8633 84° East 505 581 33,000  Level Cleveland Center
03:46PM 43.2481 -82.6639 89° East 505 581 33,000  Level Cleveland Center
03:46PM 43.2500 -82.5667 88° East 520 598 33,000  Level Toronto Center
03:47PM 43.2333 -82.3500 96° East 520 598 33,000  Level Toronto Center
03:48PM 43.2167 -82.1667 97° East 520 598 33,000  Level Toronto Center
03:49PM 43.2167 -81.9667 90° East 520 598 33,000  Level Toronto Center
03:50PM 43.2167 -81.7833 90° East 520 598 33,000  Level Toronto Center
03:51PM 43.2167 -81.5833 90° East 520 598 33,000  Level Toronto Center
03:52PM 43.2000 -81.3667 96° East 520 598 33,000  Level Toronto Center
03:53PM 43.2000 -81.1833 90° East 520 598 33,000  Level Toronto Center
03:54PM 43.1833 -80.9833 96° East 520 598 33,000  Level Toronto Center
03:55PM 43.2000 -80.7833 83° East 520 598 33,000  Level Toronto Center
03:56PM 43.1833 -80.5667 96° East 520 598 33,000  Level Toronto Center
03:57PM 43.1833 -80.3833 90° East 520 598 33,000  Level Toronto Center
03:58PM 43.1667 -80.1833 96° East 510 587 33,000  Level Toronto Center
03:59PM 43.1667 -80.0000 90° East 520 598 33,000  Level Toronto Center
04:00PM 43.1500 -79.8000 96° East 510 587 33,000  Level Toronto Center
04:01PM 43.1500 -79.6167 90° East 510 587 33,000  Level Toronto Center
04:02PM 43.1333 -79.4000 96° East 510 587 33,000  Level Toronto Center
04:03PM 43.1333 -79.2167 90° East 500 575 33,000  Level Toronto Center
04:04PM 43.1333 -79.0333 90° East 500 575 33,000  Level Toronto Center
04:05PM 43.1833 -78.8500 69° East 500 575 33,000  Level Toronto Center
04:06PM 43.2028 -78.7775 70° East 497 572 33,000  Level Cleveland Center
04:07PM 43.2453 -78.5883 73° East 502 578 33,000 -60 Level Cleveland Center
04:08PM 43.2858 -78.4072 73° East 508 585 32,900 -600 Descending Cleveland Center
04:09PM 43.3261 -78.2231 73° East 502 578 31,800 -1,140 Descending Cleveland Center
04:10PM 43.3678 -78.0331 73° East 502 578 30,700 -1,140 Descending Cleveland Center
04:11PM 43.4031 -77.8403 76° East 507 583 29,600 -900 Descending Cleveland Center
04:12PM 43.4003 -77.6431 91° East 507 583 29,000 -300 Descending Cleveland Center
04:13PM 43.3703 -77.4531 102° East 507 583 29,000  Level Cleveland Center
04:14PM 43.3422 -77.2661 102° East 502 578 29,000  Level Cleveland Center
04:15PM 43.3117 -77.0736 102° East 502 578 29,000  Level Cleveland Center
04:16PM 43.2803 -76.8731 102° East 502 578 29,000 -120 Level Cleveland Center
04:18PM 43.2153 -76.4606 102° East 509 586 28,800 -360 Descending Boston Center
04:19PM 43.1842 -76.2733 103° East 504 580 28,000 -420 Descending Boston Center
04:20PM 43.1531 -76.0833 103° East 504 580 28,000 -60 Level Boston Center
04:21PM 43.1214 -75.8936 103° East 509 586 27,900 -1,020 Descending Boston Center
04:22PM 43.0892 -75.7128 104° East 498 573 26,100 -1,920 Descending Boston Center
04:23PM 43.0544 -75.5375 105° East 492 566 24,100 -1,560 Descending Boston Center
04:24PM 42.9978 -75.3956 119° Southeast 473 544 23,000 -1,500 Descending Boston Center
04:25PM 42.9411 -75.2394 116° Southeast 462 532 21,200 -2,160 Descending Boston Center
04:26PM 42.8867 -75.0842 116° Southeast 457 526 18,700 -2,580 Descending Boston Center
04:27PM 42.8294 -74.9314 117° Southeast 457 526 16,200 -2,640 Descending Boston Center
04:28PM 42.7956 -74.7717 106° East 432 497 13,800 -2,340 Descending Boston Center
04:29PM 42.7861 -74.6156 95° East 402 463 11,700 -1,440 Descending Boston Center
04:30PM 42.7803 -74.4711 93° East 385 443 10,900 -1,260 Descending Boston Center
04:31PM 42.7428 -74.3542 114° Southeast 351 404 9,100 -1,980 Descending Boston Center
04:32PM 42.7031 -74.2342 114° Southeast 312 359 6,800 -2,160 Descending Boston Center
04:33PM 42.6669 -74.1456 119° Southeast 299 344 4,800 -1,440 Descending Boston Center
04:34PM 42.6097 -74.0622 133° Southeast 251 289 4,000 -420 Descending Boston Center
04:35PM 42.5922 -73.9800 106° East 257 296 4,000 -480 Level Boston Center
04:36PM 42.5828 -73.8922 98° East 215 247 3,100 -840 Descending Boston Center
04:37PM 42.5919 -73.8247 80° East 204 235 2,400 -600 Descending Boston Center
04:38PM 42.6403 -73.8006 20° North 180 207 1,900 -540 Descending Boston Center
04:39PM 42.6861 -73.8042 357° North 143 165 1,300 -600 Descending Boston Center
04:40PM 42.7236 -73.8081 356° North 128 147 700 11,580 Descending Boston Center
04:41PM 42.5892 -73.5033 121° Southeast 204 235 23,000 23,460 Climbing Boston Center